Time;durP1;ratioP1;P1;durP2;ratioP2;P2;SDS_P1;SDS_P2;PMS_P1;PMS_P2;Temp;Humidity;BMP_temperature;BMP_pressure;BME280_temperature;BME280_humidity;BME280_pressure;Samples;Min_cycle;Max_cycle;Signal;HPM_P1;HPM_P2
2023/08/30 00:01:44;;;;;;;10.80;7.22;;;;;;;15.62;79.55;100889.38;7399410;19;19922;-78
2023/08/30 00:04:12;;;;;;;9.38;6.80;;;;;;;15.58;79.86;100890.81;7400710;19;19950;-78
2023/08/30 00:06:43;;;;;;;8.48;7.03;;;;;;;15.54;80.25;100881.41;7397759;19;19938;-79
2023/08/30 00:09:12;;;;;;;11.73;8.23;;;;;;;15.48;80.27;100883.06;7400298;19;19922;-79
2023/08/30 00:11:41;;;;;;;11.57;8.00;;;;;;;15.44;80.26;100870.97;7401653;19;19937;-79
2023/08/30 00:14:10;;;;;;;12.23;8.73;;;;;;;15.39;80.11;100870.75;7397990;19;19926;-79
2023/08/30 00:16:39;;;;;;;11.18;8.73;;;;;;;15.36;80.62;100871.97;7400563;19;19922;-78
2023/08/30 00:19:09;;;;;;;12.45;8.38;;;;;;;15.35;80.40;100870.31;7400969;19;19942;-78
2023/08/30 00:21:37;;;;;;;10.65;7.70;;;;;;;15.34;80.53;100874.06;7400367;19;20285;-79
2023/08/30 00:24:09;;;;;;;11.80;7.88;;;;;;;15.30;80.92;100874.69;7399976;19;19941;-78
2023/08/30 00:26:38;;;;;;;9.75;7.60;;;;;;;15.27;80.88;100873.22;7398638;19;19923;-78
2023/08/30 00:29:06;;;;;;;11.10;8.25;;;;;;;15.23;80.77;100869.25;7402326;19;19927;-79
2023/08/30 00:31:35;;;;;;;11.77;9.00;;;;;;;15.21;80.78;100865.91;7395839;19;19933;-79
2023/08/30 00:34:03;;;;;;;12.13;8.88;;;;;;;15.20;80.90;100877.81;7397914;19;19918;-78
2023/08/30 00:36:32;;;;;;;13.50;9.90;;;;;;;15.16;80.97;100873.84;7399790;19;20483;-78
2023/08/30 00:39:01;;;;;;;13.05;9.25;;;;;;;15.11;81.09;100870.91;7399945;19;19968;-78
2023/08/30 00:41:32;;;;;;;12.35;9.25;;;;;;;15.04;81.28;100870.06;7400397;19;19925;-79
2023/08/30 00:44:20;;;;;;;13.07;8.60;;;;;;;15.00;81.26;100871.53;7396691;19;19976;-78
2023/08/30 00:46:49;;;;;;;13.35;8.85;;;;;;;14.98;81.44;100868.16;7399842;19;19938;-79
2023/08/30 00:49:18;;;;;;;12.98;9.60;;;;;;;14.91;82.07;100864.63;7400009;19;19954;-78
2023/08/30 00:51:47;;;;;;;11.45;8.60;;;;;;;14.85;81.75;100866.28;7400870;19;19938;-78
2023/08/30 00:54:16;;;;;;;12.60;8.25;;;;;;;14.81;82.25;100858.75;7398013;19;19922;-78
2023/08/30 00:56:47;;;;;;;11.55;8.85;;;;;;;14.78;82.10;100862.72;7400404;19;19919;-78
2023/08/30 00:59:16;;;;;;;10.63;9.07;;;;;;;14.72;82.16;100858.09;7399686;19;19968;-79
2023/08/30 01:01:46;;;;;;;11.40;8.73;;;;;;;14.68;82.44;100858.72;7400171;19;19975;-79
2023/08/30 01:04:34;;;;;;;12.77;9.07;;;;;;;14.61;82.20;100869.53;7395396;19;19920;-79
2023/08/30 01:07:03;;;;;;;14.80;9.80;;;;;;;14.57;82.41;100862.84;7399525;19;19926;-78
2023/08/30 01:09:31;;;;;;;16.10;9.48;;;;;;;14.54;82.49;100861.38;7398103;19;20369;-78
2023/08/30 01:12:12;;;;;;;11.48;9.07;;;;;;;14.48;82.83;100859.50;7399710;19;19923;-79
2023/08/30 01:14:46;;;;;;;12.45;10.50;;;;;;;14.46;83.06;100864.25;7394561;19;19930;-79
2023/08/30 01:17:19;;;;;;;13.98;9.98;;;;;;;14.40;83.47;100856.97;7397936;19;19932;-79
2023/08/30 01:19:56;;;;;;;12.13;9.23;;;;;;;14.35;83.45;100858.56;7400234;19;20391;-78
2023/08/30 01:22:41;;;;;;;12.80;9.18;;;;;;;14.29;83.30;100860.19;7399562;19;19939;-79
2023/08/30 01:25:26;;;;;;;13.80;10.25;;;;;;;14.27;83.68;100856.88;7396424;19;19923;-78
2023/08/30 01:27:58;;;;;;;13.02;10.13;;;;;;;14.27;83.33;100856.03;7395473;19;19982;-78
2023/08/30 01:30:29;;;;;;;15.48;9.75;;;;;;;14.25;83.30;100853.50;7398096;19;19919;-78
2023/08/30 01:33:20;;;;;;;14.57;10.15;;;;;;;14.21;83.22;100856.81;7397364;19;19926;-79
2023/08/30 01:35:49;;;;;;;15.38;9.57;;;;;;;14.16;83.63;100854.72;7397744;19;19946;-78
2023/08/30 01:38:19;;;;;;;16.48;10.38;;;;;;;14.12;83.71;100853.44;7400305;19;20412;-79
2023/08/30 01:40:49;;;;;;;13.73;10.07;;;;;;;14.04;83.94;100861.72;7402019;19;20344;-79
2023/08/30 01:43:21;;;;;;;15.18;9.57;;;;;;;14.01;84.34;100852.16;7404466;19;19944;-78
2023/08/30 01:45:50;;;;;;;18.80;10.85;;;;;;;14.02;84.39;100853.00;7411415;19;20749;-78
2023/08/30 01:48:20;;;;;;;15.57;10.27;;;;;;;14.03;83.79;100854.63;7407654;19;19923;-78
2023/08/30 01:51:10;;;;;;;13.70;9.65;;;;;;;14.00;84.03;100850.47;7404238;19;19951;-78
2023/08/30 01:53:39;;;;;;;13.90;10.38;;;;;;;14.02;83.65;100851.09;7403110;19;19938;-78
2023/08/30 01:56:08;;;;;;;14.95;10.32;;;;;;;14.02;83.66;100842.16;7405873;19;19918;-78
2023/08/30 01:58:39;;;;;;;14.98;9.90;;;;;;;14.03;83.91;100844.66;7404803;19;19967;-79
2023/08/30 02:01:08;;;;;;;14.70;10.15;;;;;;;13.99;83.63;100843.38;7404405;19;19939;-78
2023/08/30 02:03:39;;;;;;;;;;;;;;;13.77;85.81;100847.19;7406533;19;19934;-78
2023/08/30 02:06:14;;;;;;;15.02;11.02;;;;;;;13.91;83.84;100845.41;7405468;19;19942;-78
2023/08/30 02:08:52;;;;;;;14.07;9.63;;;;;;;13.88;84.15;100835.81;7404317;19;19946;-78
2023/08/30 02:11:25;;;;;;;14.75;9.45;;;;;;;13.88;83.95;100843.09;7405901;19;19922;-79
2023/08/30 02:14:00;;;;;;;15.30;11.13;;;;;;;13.83;84.39;100843.69;7401776;19;19943;-78
2023/08/30 02:16:31;;;;;;;18.77;10.80;;;;;;;13.81;84.26;100847.63;7404663;19;19918;-78
2023/08/30 02:18:59;;;;;;;15.93;10.10;;;;;;;13.78;84.32;100851.56;7404205;19;19918;-78
2023/08/30 02:21:30;;;;;;;13.43;9.52;;;;;;;13.79;84.06;100845.13;7404249;19;19935;-78
2023/08/30 02:23:59;;;;;;;15.02;10.80;;;;;;;13.75;84.12;100843.03;7403033;19;19923;-79
2023/08/30 02:26:27;;;;;;;15.70;10.73;;;;;;;13.69;84.10;100839.22;7402144;19;19936;-79
2023/08/30 02:28:58;;;;;;;13.38;9.80;;;;;;;13.62;84.32;100847.31;7403416;19;19939;-79
2023/08/30 02:31:28;;;;;;;17.55;11.40;;;;;;;13.57;84.16;100844.34;7404385;19;19911;-78
2023/08/30 02:33:57;;;;;;;14.38;9.57;;;;;;;13.54;84.36;100841.22;7402481;19;19918;-79
2023/08/30 02:36:26;;;;;;;12.25;9.57;;;;;;;13.49;84.29;100833.69;7404524;19;19938;-78
2023/08/30 02:38:54;;;;;;;15.10;10.27;;;;;;;13.47;84.39;100833.03;7401875;19;19922;-78
2023/08/30 02:41:23;;;;;;;13.25;10.38;;;;;;;13.44;84.13;100830.72;7401426;19;19939;-78
2023/08/30 02:43:51;;;;;;;14.45;10.10;;;;;;;13.45;84.13;100837.81;7401248;19;19957;-78
2023/08/30 02:46:22;;;;;;;13.82;9.02;;;;;;;13.43;84.09;100823.63;7400628;19;19935;-78
2023/08/30 02:48:51;;;;;;;12.98;10.02;;;;;;;13.41;84.39;100828.41;7401091;19;20298;-78
2023/08/30 02:51:19;;;;;;;12.80;9.73;;;;;;;13.40;84.53;100826.75;7401892;19;19929;-79
2023/08/30 02:53:48;;;;;;;14.38;9.52;;;;;;;13.40;84.17;100821.31;7400250;19;19985;-78
2023/08/30 02:56:17;;;;;;;12.02;8.80;;;;;;;13.39;84.17;100818.81;7402651;19;19917;-78
2023/08/30 02:59:05;;;;;;;12.90;8.77;;;;;;;13.38;83.99;100823.38;7400417;19;20335;-79
2023/08/30 03:01:36;;;;;;;14.35;9.50;;;;;;;13.37;83.98;100819.03;7403232;19;19919;-78
2023/08/30 03:04:07;;;;;;;11.32;9.15;;;;;;;13.37;84.29;100813.63;7401725;19;20507;-78
2023/08/30 03:06:36;;;;;;;12.32;9.18;;;;;;;13.35;84.28;100815.66;7404309;19;19961;-78
2023/08/30 03:09:06;;;;;;;12.20;9.00;;;;;;;13.31;84.30;100814.38;7402987;19;19958;-78
2023/08/30 03:11:54;;;;;;;12.57;8.82;;;;;;;13.30;84.29;100806.44;7401227;19;20357;-78
2023/08/30 03:14:23;;;;;;;11.85;8.70;;;;;;;13.29;83.95;100810.22;7398342;19;20297;-78
2023/08/30 03:16:54;;;;;;;13.23;9.18;;;;;;;13.28;83.91;100813.94;7403840;19;19923;-78
2023/08/30 03:19:23;;;;;;;14.45;9.40;;;;;;;13.26;83.95;100811.41;7401277;19;19950;-78
2023/08/30 03:21:52;;;;;;;12.75;8.60;;;;;;;13.23;83.93;100810.97;7401771;19;19926;-78
2023/08/30 03:24:21;;;;;;;12.75;9.38;;;;;;;13.23;83.88;100806.41;7399973;19;19919;-78
2023/08/30 03:26:49;;;;;;;13.10;8.75;;;;;;;13.21;83.72;100796.81;7398590;19;20361;-77
2023/08/30 03:29:18;;;;;;;11.07;8.45;;;;;;;13.15;83.96;100791.16;7402024;19;19990;-78
2023/08/30 03:31:46;;;;;;;12.40;9.27;;;;;;;13.13;83.66;100787.81;7401961;19;19933;-78
2023/08/30 03:34:17;;;;;;;13.55;9.02;;;;;;;13.11;83.73;100794.47;7400908;19;20382;-78
2023/08/30 03:36:50;;;;;;;12.38;8.48;;;;;;;13.06;83.67;100788.75;7402714;19;20371;-79
2023/08/30 03:39:19;;;;;;;12.82;8.93;;;;;;;12.98;83.89;100788.91;7400718;19;19919;-78
2023/08/30 03:41:48;;;;;;;11.50;8.02;;;;;;;12.93;83.94;100781.38;7402358;19;19918;-78
2023/08/30 03:44:16;;;;;;;11.23;8.70;;;;;;;12.87;83.93;100787.53;7400981;19;19934;-78
2023/08/30 03:46:45;;;;;;;11.73;8.80;;;;;;;12.82;84.21;100775.63;7401851;19;19919;-78
2023/08/30 03:49:14;;;;;;;13.35;9.23;;;;;;;12.77;84.14;100778.91;7400511;19;19934;-78
2023/08/30 03:51:45;;;;;;;10.65;8.05;;;;;;;12.73;84.11;100774.91;7401411;19;20286;-78
2023/08/30 03:54:16;;;;;;;12.60;9.23;;;;;;;12.74;84.18;100772.03;7400233;19;19946;-78
2023/08/30 03:56:44;;;;;;;13.95;8.80;;;;;;;12.71;84.15;100775.13;7402954;19;19977;-78
2023/08/30 03:59:13;;;;;;;11.52;8.23;;;;;;;12.66;84.17;100764.06;7400994;19;20455;-78
2023/08/30 04:01:42;;;;;;;12.02;9.07;;;;;;;12.64;84.22;100763.41;7401017;19;19933;-78
2023/08/30 04:04:11;;;;;;;11.65;7.90;;;;;;;12.64;83.98;100758.00;7399623;19;19922;-78
2023/08/30 04:06:39;;;;;;;13.10;7.68;;;;;;;12.63;84.07;100760.91;7399147;19;19930;-78
2023/08/30 04:09:14;;;;;;;11.85;8.93;;;;;;;12.62;83.93;100756.53;7399596;19;19952;-78
2023/08/30 04:11:42;;;;;;;13.80;8.05;;;;;;;12.61;83.82;100757.56;7400707;19;19923;-78
2023/08/30 04:14:11;;;;;;;10.30;8.27;;;;;;;12.56;84.05;100758.13;7396987;19;19922;-78
2023/08/30 04:16:41;;;;;;;10.82;6.97;;;;;;;12.54;83.91;100752.09;7400763;19;19922;-78
2023/08/30 04:19:12;;;;;;;10.73;8.35;;;;;;;12.53;83.76;100745.00;7400211;19;19939;-78
2023/08/30 04:21:40;;;;;;;9.85;7.13;;;;;;;12.49;83.96;100741.03;7399668;19;19918;-78
2023/08/30 04:24:10;;;;;;;10.07;7.57;;;;;;;12.46;83.75;100733.31;7395886;19;19915;-78
2023/08/30 04:26:41;;;;;;;11.80;8.27;;;;;;;12.45;83.67;100733.50;7398534;19;19922;-78
2023/08/30 04:29:30;;;;;;;9.02;6.75;;;;;;;12.46;83.85;100730.63;7397928;19;19919;-78
2023/08/30 04:31:58;;;;;;;11.05;7.47;;;;;;;12.46;83.72;100736.00;7401093;19;19936;-78
2023/08/30 04:34:27;;;;;;;9.73;7.38;;;;;;;12.46;83.72;100735.19;7399056;19;19939;-78
2023/08/30 04:36:55;;;;;;;11.70;7.10;;;;;;;12.39;83.80;100737.78;7400367;19;19926;-77
2023/08/30 04:39:44;;;;;;;13.35;8.32;;;;;;;12.34;83.87;100742.13;7395843;19;19978;-78
2023/08/30 04:42:18;;;;;;;9.40;7.00;;;;;;;12.31;84.25;100740.63;7399821;19;19930;-78
2023/08/30 04:44:46;;;;;;;9.90;7.32;;;;;;;12.26;84.31;100745.75;7399625;19;19926;-78
2023/08/30 04:47:15;;;;;;;10.48;7.57;;;;;;;12.24;84.40;100742.44;7402782;19;19923;-78
2023/08/30 04:49:44;;;;;;;10.18;6.88;;;;;;;12.23;84.20;100746.16;7403384;19;19914;-78
2023/08/30 04:52:12;;;;;;;12.13;7.30;;;;;;;12.23;83.97;100744.28;7405386;19;19945;-78
2023/08/30 04:54:42;;;;;;;11.77;7.25;;;;;;;12.22;84.10;100739.91;7405047;19;19918;-77
2023/08/30 04:57:33;;;;;;;10.85;7.18;;;;;;;12.24;84.12;100737.84;7399638;19;20317;-77
2023/08/30 05:00:04;;;;;;;10.52;7.63;;;;;;;12.23;83.95;100730.78;7400615;19;19922;-78
2023/08/30 05:02:33;;;;;;;10.65;6.93;;;;;;;12.22;83.87;100728.25;7399261;19;19919;-78
2023/08/30 05:05:02;;;;;;;11.77;7.38;;;;;;;12.21;83.66;100726.56;7396963;19;19919;-79
2023/08/30 05:07:31;;;;;;;10.50;7.90;;;;;;;12.19;83.98;100723.25;7397004;19;19957;-78
2023/08/30 05:09:59;;;;;;;11.15;7.50;;;;;;;12.17;83.80;100722.59;7399633;19;19949;-78
2023/08/30 05:12:28;;;;;;;15.02;7.75;;;;;;;12.18;83.91;100719.72;7399548;19;19955;-78
2023/08/30 05:15:01;;;;;;;10.13;7.53;;;;;;;12.19;84.00;100720.53;7395945;19;20327;-78
2023/08/30 05:17:30;;;;;;;8.93;7.47;;;;;;;12.14;83.90;100710.31;7401906;19;19915;-77
2023/08/30 05:19:59;;;;;;;12.32;8.10;;;;;;;12.08;83.94;100715.66;7406649;19;19938;-78
2023/08/30 05:22:27;;;;;;;10.25;7.43;;;;;;;12.00;83.92;100721.16;7403539;19;19955;-78
2023/08/30 05:24:57;;;;;;;12.73;7.82;;;;;;;11.96;84.03;100719.84;7404549;19;19914;-78
2023/08/30 05:27:25;;;;;;;14.60;8.10;;;;;;;11.96;84.51;100720.69;7406270;19;19907;-78
2023/08/30 05:29:55;;;;;;;12.77;8.35;;;;;;;11.95;84.36;100720.91;7403212;19;21527;-78
2023/08/30 05:32:26;;;;;;;10.98;7.68;;;;;;;11.95;84.60;100716.31;7400109;19;19922;-78
2023/08/30 05:34:55;;;;;;;16.33;8.68;;;;;;;11.97;84.57;100714.28;7406536;19;19918;-78
2023/08/30 05:37:24;;;;;;;10.85;7.70;;;;;;;11.98;84.69;100715.13;7404335;19;20265;-78
2023/08/30 05:39:53;;;;;;;11.73;7.68;;;;;;;12.05;84.81;100707.91;7404115;19;19922;-78
2023/08/30 05:42:21;;;;;;;12.05;8.15;;;;;;;12.10;84.75;100703.63;7403140;19;19918;-78
2023/08/30 05:44:50;;;;;;;10.68;8.35;;;;;;;12.15;84.71;100700.34;7403380;19;19922;-77
2023/08/30 05:47:19;;;;;;;12.52;8.10;;;;;;;12.18;84.61;100691.84;7404539;19;19918;-78
2023/08/30 05:49:50;;;;;;;13.05;8.20;;;;;;;12.25;84.92;100692.78;7398786;19;19922;-78
2023/08/30 05:52:19;;;;;;;12.82;8.05;;;;;;;12.33;84.90;100689.94;7403419;19;19926;-78
2023/08/30 05:54:47;;;;;;;11.73;7.90;;;;;;;12.40;84.65;100685.44;7401480;19;19926;-78
2023/08/30 05:57:16;;;;;;;12.38;8.25;;;;;;;12.45;84.59;100685.69;7404662;19;19934;-78
2023/08/30 05:59:45;;;;;;;11.23;7.85;;;;;;;12.50;84.35;100693.22;7403854;19;20261;-76
2023/08/30 06:02:15;;;;;;;13.32;8.18;;;;;;;12.55;84.25;100686.22;7404799;19;20280;-78
2023/08/30 06:04:44;;;;;;;10.00;7.22;;;;;;;12.56;83.80;100687.03;7401650;19;19926;-78
2023/08/30 06:07:15;;;;;;;12.82;7.95;;;;;;;12.57;84.03;100683.31;7404230;19;19923;-80
2023/08/30 06:09:45;;;;;;;12.80;7.18;;;;;;;12.61;84.36;100679.19;7400091;19;19922;-82
2023/08/30 06:12:13;;;;;;;10.45;7.03;;;;;;;12.62;84.15;100676.28;7405375;19;20282;-83
2023/08/30 06:14:42;;;;;;;10.55;7.05;;;;;;;12.67;83.85;100676.56;7396404;19;19922;-80
2023/08/30 06:17:11;;;;;;;12.27;7.13;;;;;;;12.74;83.94;100677.44;7406459;19;20328;-79
2023/08/30 06:19:39;;;;;;;10.88;7.85;;;;;;;12.77;84.05;100672.69;7407356;19;19930;-79
2023/08/30 06:22:08;;;;;;;11.18;7.60;;;;;;;12.81;83.98;100668.56;7405398;19;20272;-78
2023/08/30 06:24:39;;;;;;;11.70;7.05;;;;;;;12.90;84.13;100675.47;7397747;19;19918;-78
2023/08/30 06:27:08;;;;;;;11.18;7.32;;;;;;;12.95;84.15;100660.31;7400753;19;19934;-79
2023/08/30 06:29:37;;;;;;;13.50;8.25;;;;;;;13.05;83.95;100658.09;7399373;19;19954;-79
2023/08/30 06:32:06;;;;;;;10.50;6.55;;;;;;;13.16;84.07;100659.44;7403981;19;19950;-79
2023/08/30 06:34:35;;;;;;;10.85;7.25;;;;;;;13.24;83.31;100659.31;7400906;19;19926;-79
2023/08/30 06:37:04;;;;;;;14.18;7.35;;;;;;;13.30;83.09;100655.78;7404497;19;19918;-79
2023/08/30 06:39:36;;;;;;;11.90;6.85;;;;;;;13.36;82.89;100652.28;7399820;19;19922;-79
2023/08/30 06:42:07;;;;;;;9.43;6.50;;;;;;;13.40;83.32;100658.13;7404126;19;20027;-79
2023/08/30 06:44:36;;;;;;;10.93;7.20;;;;;;;13.45;83.32;100652.97;7401123;19;19944;-79
2023/08/30 06:47:05;;;;;;;10.02;7.00;;;;;;;13.49;83.09;100657.78;7400111;19;19926;-78
2023/08/30 06:49:33;;;;;;;12.13;7.88;;;;;;;13.54;83.45;100660.72;7399407;19;19926;-79
2023/08/30 06:52:04;;;;;;;11.15;7.03;;;;;;;13.59;83.21;100660.91;7400086;19;19933;-79
2023/08/30 06:54:36;;;;;;;14.13;8.63;;;;;;;13.66;83.37;100657.41;7402379;19;19933;-78
2023/08/30 06:57:08;;;;;;;11.55;7.35;;;;;;;13.73;83.42;100658.25;7403951;19;19926;-79
2023/08/30 06:59:37;;;;;;;11.10;7.22;;;;;;;13.79;82.95;100657.47;7402939;19;19926;-79
2023/08/30 07:02:06;;;;;;;10.40;6.85;;;;;;;13.85;82.96;100656.66;7396851;19;19947;-79
2023/08/30 07:04:35;;;;;;;13.25;7.32;;;;;;;13.91;83.11;100653.13;7402814;19;19926;-79
2023/08/30 07:07:03;;;;;;;10.48;7.28;;;;;;;13.97;82.46;100645.03;7399057;19;19930;-79
2023/08/30 07:09:33;;;;;;;12.32;6.85;;;;;;;14.03;82.23;100640.66;7399177;19;19941;-79
2023/08/30 07:12:02;;;;;;;13.38;8.07;;;;;;;14.08;81.48;100643.59;7399270;19;19957;-79
2023/08/30 07:14:33;;;;;;;15.32;8.23;;;;;;;14.12;81.65;100639.41;7401847;19;19934;-79
2023/08/30 07:17:02;;;;;;;10.35;6.53;;;;;;;14.14;81.11;100641.94;7400538;19;19926;-79
2023/08/30 07:19:30;;;;;;;9.95;6.53;;;;;;;14.17;81.36;100645.06;7400202;19;19910;-79
2023/08/30 07:21:59;;;;;;;10.43;6.93;;;;;;;14.19;81.50;100645.72;7398651;19;19918;-79
2023/08/30 07:24:28;;;;;;;12.30;7.03;;;;;;;14.24;81.49;100642.38;7402220;19;19961;-78
2023/08/30 07:26:56;;;;;;;12.27;7.50;;;;;;;14.28;80.66;100644.44;7400469;19;19922;-79
2023/08/30 07:29:25;;;;;;;10.45;6.57;;;;;;;14.33;80.56;100639.25;7398769;19;20731;-79
2023/08/30 07:32:00;;;;;;;11.50;7.95;;;;;;;14.36;81.07;100636.16;7402116;19;20051;-79
2023/08/30 07:34:28;;;;;;;12.65;7.90;;;;;;;14.42;80.96;100632.63;7401836;19;19927;-79
2023/08/30 07:36:58;;;;;;;10.55;6.80;;;;;;;14.46;80.72;100641.16;7403528;19;19926;-79
2023/08/30 07:39:26;;;;;;;11.60;7.03;;;;;;;14.48;80.78;100642.63;7399500;19;20336;-79
2023/08/30 07:41:55;;;;;;;11.85;7.88;;;;;;;14.52;81.00;100646.59;7399173;19;20348;-79
2023/08/30 07:44:24;;;;;;;12.95;7.65;;;;;;;14.55;81.05;100648.03;7401791;19;19927;-79
2023/08/30 07:46:52;;;;;;;10.73;7.30;;;;;;;14.60;81.14;100639.28;7404148;19;19911;-79
2023/08/30 07:49:24;;;;;;;10.93;7.53;;;;;;;14.63;80.24;100641.56;7402174;19;19922;-79
2023/08/30 07:51:52;;;;;;;13.80;7.93;;;;;;;14.61;80.03;100644.50;7403030;19;20459;-79
2023/08/30 07:54:21;;;;;;;14.13;7.13;;;;;;;14.61;80.09;100639.09;7402327;19;19974;-79
2023/08/30 07:56:49;;;;;;;10.93;7.00;;;;;;;14.62;79.86;100640.75;7405546;19;19918;-79
2023/08/30 07:59:18;;;;;;;11.55;6.78;;;;;;;14.66;80.09;100638.47;7405333;19;20348;-80
2023/08/30 08:01:48;;;;;;;10.95;7.75;;;;;;;14.71;79.51;100639.47;7406069;19;19921;-79
2023/08/30 08:04:17;;;;;;;11.60;6.93;;;;;;;14.75;79.19;100648.06;7404718;19;19930;-79
2023/08/30 08:06:48;;;;;;;12.40;7.05;;;;;;;14.79;78.74;100641.16;7407159;19;20332;-79
2023/08/30 08:09:17;;;;;;;12.15;7.43;;;;;;;14.84;78.76;100641.38;7400129;19;19929;-80
2023/08/30 08:11:46;;;;;;;12.45;7.28;;;;;;;14.91;78.52;100647.63;7402207;19;19918;-79
2023/08/30 08:14:15;;;;;;;11.00;7.30;;;;;;;14.91;78.74;100644.91;7399029;19;19926;-79
2023/08/30 08:16:44;;;;;;;12.48;7.10;;;;;;;14.92;78.81;100654.72;7400694;19;19969;-79
2023/08/30 08:19:32;;;;;;;12.85;7.63;;;;;;;14.94;79.25;100648.03;7397671;19;19923;-80
2023/08/30 08:22:04;;;;;;;13.93;7.15;;;;;;;14.97;78.62;100658.44;7398611;19;19926;-79
2023/08/30 08:24:32;;;;;;;14.02;7.25;;;;;;;15.03;78.83;100650.50;7395863;19;19918;-78
2023/08/30 08:27:01;;;;;;;13.23;7.55;;;;;;;15.05;78.34;100648.44;7398320;19;20384;-79
2023/08/30 08:29:30;;;;;;;12.93;7.38;;;;;;;15.10;78.41;100648.63;7396764;19;19926;-79
2023/08/30 08:31:59;;;;;;;14.45;7.45;;;;;;;15.10;78.13;100648.63;7399503;19;20352;-79
2023/08/30 08:34:28;;;;;;;12.85;8.13;;;;;;;15.11;77.90;100651.13;7397179;19;20344;-79
2023/08/30 08:37:19;;;;;;;11.23;6.88;;;;;;;15.15;77.56;100652.38;7398832;19;19988;-79
2023/08/30 08:39:49;;;;;;;11.95;6.70;;;;;;;15.21;77.33;100656.13;7397085;19;20364;-79
2023/08/30 08:42:24;;;;;;;15.13;7.88;;;;;;;15.29;76.70;100650.47;7397328;19;19918;-79
2023/08/30 08:44:54;;;;;;;12.88;7.95;;;;;;;15.38;76.76;100654.63;7398287;19;19926;-79
2023/08/30 08:47:43;;;;;;;12.88;7.32;;;;;;;15.45;76.27;100650.81;7396996;19;19922;-79
2023/08/30 08:50:12;;;;;;;13.07;7.55;;;;;;;15.50;76.56;100652.94;7397791;19;19946;-78
2023/08/30 08:52:44;;;;;;;15.13;8.00;;;;;;;15.53;76.23;100657.94;7400676;19;19954;-79
2023/08/30 08:55:13;;;;;;;12.20;8.10;;;;;;;15.57;76.40;100642.91;7402943;19;20006;-79
2023/08/30 08:57:42;;;;;;;12.43;7.85;;;;;;;15.62;75.91;100655.84;7406524;19;19934;-79
2023/08/30 09:00:12;;;;;;;11.95;7.28;;;;;;;15.68;76.00;100652.22;7404211;19;20543;-78
2023/08/30 09:02:43;;;;;;;11.52;7.68;;;;;;;15.69;75.45;100653.91;7404621;19;19922;-78
2023/08/30 09:05:12;;;;;;;13.35;7.03;;;;;;;15.75;75.47;100656.59;7401329;19;19922;-79
2023/08/30 09:07:45;;;;;;;13.15;8.20;;;;;;;15.83;74.61;100648.19;7405839;19;20688;-79
2023/08/30 09:10:14;;;;;;;17.35;9.30;;;;;;;15.95;74.33;100645.63;7402239;19;20018;-79
2023/08/30 09:12:43;;;;;;;12.30;7.57;;;;;;;16.03;74.15;100633.66;7404058;19;19926;-78
2023/08/30 09:15:11;;;;;;;12.55;7.78;;;;;;;16.13;74.05;100640.31;7403587;19;19926;-78
2023/08/30 09:17:42;;;;;;;13.00;7.72;;;;;;;16.25;73.54;100652.13;7405207;19;20256;-77
2023/08/30 09:20:12;;;;;;;13.65;8.15;;;;;;;16.35;73.37;100640.78;7403920;19;20348;-78
2023/08/30 09:22:46;;;;;;;14.00;8.20;;;;;;;16.46;73.13;100647.38;7403137;19;20359;-78
2023/08/30 09:25:26;;;;;;;15.40;7.28;;;;;;;16.52;72.16;100652.78;7401718;19;19927;-78
2023/08/30 09:28:00;;;;;;;14.27;9.07;;;;;;;16.65;72.27;100646.44;7403253;19;19929;-78
2023/08/30 09:30:31;;;;;;;14.68;8.05;;;;;;;16.78;72.11;100644.41;7403248;19;19926;-78
2023/08/30 09:33:05;;;;;;;13.40;8.23;;;;;;;16.86;70.51;100642.47;7401240;19;19998;-79
2023/08/30 09:35:33;;;;;;;13.90;8.13;;;;;;;16.92;70.90;100638.84;7404024;19;19918;-79
2023/08/30 09:38:05;;;;;;;13.18;7.90;;;;;;;16.98;70.81;100636.06;7403805;19;19935;-77
2023/08/30 09:40:34;;;;;;;13.30;7.88;;;;;;;17.02;71.22;100633.72;7403853;19;19941;-78
2023/08/30 09:43:03;;;;;;;14.50;8.45;;;;;;;17.04;70.58;100628.91;7406055;19;20300;-78
2023/08/30 09:45:33;;;;;;;16.00;8.68;;;;;;;17.05;70.17;100625.94;7400920;19;20273;-79
2023/08/30 09:48:03;;;;;;;14.35;8.20;;;;;;;17.06;70.45;100611.28;7404847;19;19918;-79
2023/08/30 09:50:37;;;;;;;14.10;8.98;;;;;;;17.07;70.43;100614.84;7402070;19;19925;-78
2023/08/30 09:53:29;;;;;;;12.52;8.40;;;;;;;17.11;70.48;100616.88;7399691;19;19990;-78
2023/08/30 09:56:01;;;;;;;13.52;8.23;;;;;;;17.13;70.16;100614.75;7400450;19;20388;-79
2023/08/30 09:58:30;;;;;;;15.23;8.23;;;;;;;17.10;69.41;100615.22;7401531;19;19927;-83
2023/08/30 10:01:02;;;;;;;10.88;7.65;;;;;;;17.02;69.77;100615.50;7400989;19;20363;-78
2023/08/30 10:03:32;;;;;;;14.45;7.65;;;;;;;16.95;69.92;100613.94;7402508;19;19923;-81
2023/08/30 10:06:05;;;;;;;13.85;7.20;;;;;;;16.89;70.40;100612.94;7406209;19;19930;-88
2023/08/30 10:08:39;;;;;;;12.07;7.82;;;;;;;16.83;71.17;100613.00;7410484;19;19924;-87
2023/08/30 10:11:08;;;;;;;12.50;6.47;;;;;;;16.76;70.24;100613.06;7407758;19;20071;-88
2023/08/30 10:13:41;;;;;;;11.32;6.80;;;;;;;16.68;69.25;100602.47;7409707;19;19923;-88
2023/08/30 10:16:14;;;;;;;12.02;6.53;;;;;;;16.59;68.93;100609.22;7413485;19;20341;-90
2023/08/30 10:18:44;;;;;;;9.13;5.53;;;;;;;16.49;68.82;100614.28;7405147;19;20468;-82
2023/08/30 10:21:15;;;;;;;10.93;6.10;;;;;;;16.40;68.82;100621.06;7399161;19;19926;-73
2023/08/30 10:23:47;;;;;;;10.93;6.03;;;;;;;16.31;68.19;100625.94;7397539;19;19938;-74
2023/08/30 10:26:18;;;;;;;10.32;6.85;;;;;;;16.26;69.61;100623.06;7402244;19;19928;-75
2023/08/30 10:28:47;;;;;;;9.13;6.20;;;;;;;16.19;69.68;100628.53;7403095;19;19922;-75
2023/08/30 10:31:17;;;;;;;10.25;6.30;;;;;;;16.13;68.57;100626.72;7395157;19;19918;-75
2023/08/30 10:33:52;;;;;;;9.05;5.95;;;;;;;16.10;69.32;100618.13;7401050;19;19965;-74
2023/08/30 10:36:25;;;;;;;8.52;5.78;;;;;;;16.09;69.94;100620.03;7401140;19;19922;-75
2023/08/30 10:38:57;;;;;;;11.60;6.00;;;;;;;16.05;69.03;100605.22;7400356;19;19926;-75
2023/08/30 10:41:28;;;;;;;9.35;5.00;;;;;;;16.04;69.84;100608.16;7397153;19;19942;-75
2023/08/30 10:43:58;;;;;;;11.63;5.93;;;;;;;16.05;69.80;100613.38;7401260;19;19915;-74
2023/08/30 10:46:34;;;;;;;11.00;6.30;;;;;;;16.06;69.46;100620.47;7400807;19;19944;-75
2023/08/30 10:49:14;;;;;;;8.85;4.78;;;;;;;16.03;69.26;100615.47;7401239;19;19914;-75
2023/08/30 10:51:44;;;;;;;10.05;6.40;;;;;;;16.08;69.54;100606.69;7402084;19;19935;-75
2023/08/30 10:54:20;;;;;;;9.07;5.82;;;;;;;16.14;69.32;100605.78;7399168;19;19918;-75
2023/08/30 10:56:50;;;;;;;10.15;6.00;;;;;;;16.29;69.39;100607.16;7401930;19;20351;-74
2023/08/30 10:59:20;;;;;;;8.10;5.35;;;;;;;16.47;69.11;100605.53;7402068;19;19927;-74
2023/08/30 11:01:50;;;;;;;9.80;6.50;;;;;;;16.64;69.07;100598.53;7399084;19;20369;-77
2023/08/30 11:04:21;;;;;;;11.45;6.13;;;;;;;16.71;68.95;100600.13;7401723;19;19915;-75
2023/08/30 11:06:52;;;;;;;10.38;6.68;;;;;;;16.82;68.92;100593.13;7400422;19;19942;-75
2023/08/30 11:09:24;;;;;;;10.05;6.13;;;;;;;16.87;68.19;100597.91;7404168;19;20352;-75
2023/08/30 11:12:13;;;;;;;12.50;7.07;;;;;;;16.80;68.66;100595.22;7401853;19;19960;-75
2023/08/30 11:14:43;;;;;;;10.75;6.80;;;;;;;16.78;69.17;100586.47;7405748;19;19939;-74
2023/08/30 11:17:12;;;;;;;10.13;6.18;;;;;;;16.79;70.15;100583.50;7401282;19;19918;-74
2023/08/30 11:19:41;;;;;;;9.27;5.68;;;;;;;16.76;69.71;100577.69;7397381;19;19923;-74
2023/08/30 11:22:10;;;;;;;10.35;6.43;;;;;;;16.68;69.76;100578.81;7397614;19;19950;-75
2023/08/30 11:24:41;;;;;;;10.32;5.93;;;;;;;16.64;70.03;100576.75;7400233;19;19933;-75
2023/08/30 11:27:10;;;;;;;8.20;5.63;;;;;;;16.66;70.48;100577.34;7399797;19;19918;-79
2023/08/30 11:29:42;;;;;;;8.52;5.57;;;;;;;16.63;70.00;100575.09;7396411;19;21433;-78
2023/08/30 11:32:11;;;;;;;9.43;6.40;;;;;;;16.62;70.23;100576.16;7394980;19;19929;-78
2023/08/30 11:34:40;;;;;;;9.18;6.18;;;;;;;16.64;70.42;100568.59;7392398;19;20315;-78